Terminal Aerodrome Forecast
Issued by NWS Atlanta, GA

Home | Current Version | Previous Version | Text Only | Print | Product List | Glossary On
Versions: 1 2 3 4 5 6 7 8 9 10 11 12 13 14 15 16 17 18 19 20 21 22 23 24 25 26 27 28 29 30 31 32 33 34 35 36 37 38
000
FTUS42 KFFC 300520
TAFATL
TAF
KATL 300520Z 3006/3112 10006KT P6SM VCSH SCT040 BKN080
     FM301000 09006KT P6SM -SHRA SCT008 BKN025 OVC100
      TEMPO 3010/3014 5SM -SHRA BR BKN008
     FM301400 08008KT P6SM -SHRA BKN015 OVC100
     FM301600 09010KT P6SM VCSH BKN025 BKN120
     FM301800 09010KT P6SM VCSH BKN035 PROB30 3018/3022 5SM TSRA
      BKN025CB
     FM310100 09008KT P6SM SCT030 BKN100
     FM310600 09007KT P6SM BKN005 OVC030=

USA.gov is the U.S. government's official web portal to all federal, state and local government web resources and services.